Harvey, Arkansas
Current Conditions -  °F | °C
As of 3:53 AM on Sunday 26 Oct 2014 (Local Time) from KMWT Reporting Station
Haze Haze  
Wind Chill: 58°   Ceiling: Unl
Heat Index: 58°   Visibility: 2.5mi
Dew Point: 56°   Wind: 0mph
Humidity: 93%   Direction: NA
Pressure: 29.99"   Gusts: NA
Location:  34.85°N, 93.79°W
Report Text: KMWT 260853Z AUTO 00000KT 2 1/2SM BR SCT002 14/13 A2999 RMK AO2 SLP148 T01440133 58005
Loading
Personal Weather Stations






























Interactive Weather Map
Tropical Storm Tracking
New forecast layout! Learn more

10-Day Weather Forecast

Advertisements
Track Severe Weather on mobile